Time;durP1;ratioP1;P1;durP2;ratioP2;P2;SDS_P1;SDS_P2;PMS_P1;PMS_P2;Temp;Humidity;BMP_temperature;BMP_pressure;BME280_temperature;BME280_humidity;BME280_pressure;Samples;Min_cycle;Max_cycle;Signal;HPM_P1;HPM_P2
2022/10/29 00:01:20;;;;;;;13.33;12.43;;;16.80;41.90;;;;;;5047432;28;20484;-53
2022/10/29 00:03:47;;;;;;;12.80;11.97;;;16.70;42.20;;;;;;5046621;28;20218;-53
2022/10/29 00:06:13;;;;;;;14.20;12.70;;;16.60;42.30;;;;;;5048069;28;20203;-54
2022/10/29 00:08:40;;;;;;;14.00;12.97;;;16.50;42.50;;;;;;5048280;28;20493;-55
2022/10/29 00:11:18;;;;;;;14.63;13.63;;;16.40;42.70;;;;;;5047654;28;20830;-55
2022/10/29 00:13:44;;;;;;;14.30;13.07;;;16.40;43.10;;;;;;5046950;28;20457;-54
2022/10/29 00:16:19;;;;;;;13.33;12.20;;;16.50;43.30;;;;;;5047302;28;20919;-54
2022/10/29 00:18:46;;;;;;;13.93;12.73;;;16.60;42.90;;;;;;5047449;28;20453;-55
2022/10/29 00:21:14;;;;;;;13.13;12.23;;;16.60;42.60;;;;;;5046082;28;20425;-55
2022/10/29 00:23:40;;;;;;;14.27;13.10;;;16.70;42.60;;;;;;5045318;28;20484;-55
2022/10/29 00:26:06;;;;;;;13.63;12.67;;;16.70;42.10;;;;;;5045991;28;20426;-54
2022/10/29 00:28:32;;;;;;;14.87;13.87;;;16.70;42.10;;;;;;5045674;28;20258;-54
2022/10/29 00:31:03;;;;;;;14.70;13.43;;;16.70;42.30;;;;;;5045748;28;20526;-55
2022/10/29 00:33:28;;;;;;;14.00;13.10;;;16.80;42.20;;;;;;5047495;28;20415;-54
2022/10/29 00:36:06;;;;;;;13.10;12.20;;;16.80;42.20;;;;;;5046507;28;20837;-54
2022/10/29 00:38:33;;;;;;;13.73;11.80;;;16.80;42.40;;;;;;5045856;28;20180;-53
2022/10/29 00:40:59;;;;;;;14.27;13.07;;;16.80;42.40;;;;;;5048139;28;20497;-53
2022/10/29 00:43:26;;;;;;;13.90;12.70;;;16.80;42.30;;;;;;5045069;28;20472;-59
2022/10/29 00:45:55;;;;;;;16.10;12.93;;;16.80;42.60;;;;;;5045134;28;20416;-58
2022/10/29 00:48:23;;;;;;;13.73;12.80;;;16.80;42.80;;;;;;5045337;28;20969;-58
2022/10/29 00:50:49;;;;;;;14.90;13.80;;;16.80;42.20;;;;;;5045381;28;20406;-58
2022/10/29 00:53:20;;;;;;;13.40;12.70;;;16.80;42.10;;;;;;5044439;28;20442;-58
2022/10/29 00:55:45;;;;;;;12.77;11.80;;;16.80;42.10;;;;;;5045640;28;20785;-59
2022/10/29 00:58:11;;;;;;;15.27;13.97;;;16.80;42.20;;;;;;5048491;28;20414;-58
2022/10/29 01:00:37;;;;;;;13.03;12.23;;;16.80;42.30;;;;;;5045969;28;20605;-59
2022/10/29 01:03:04;;;;;;;18.63;12.77;;;16.80;41.80;;;;;;5043549;28;20176;-59
2022/10/29 01:05:32;;;;;;;15.23;13.83;;;16.70;42.40;;;;;;5045024;28;20415;-59
2022/10/29 01:07:58;;;;;;;14.13;13.10;;;16.60;42.20;;;;;;5048713;28;20426;-59
2022/10/29 01:10:47;;;;;;;14.67;13.37;;;16.60;42.70;;;;;;5046752;28;20430;-59
2022/10/29 01:13:51;;;;;;;13.40;12.50;;;16.60;42.80;;;;;;5049501;28;20241;-60
2022/10/29 01:16:26;;;;;;;15.07;13.47;;;16.60;42.80;;;;;;5049842;28;20486;-59
2022/10/29 01:19:01;;;;;;;13.47;12.73;;;16.60;42.90;;;;;;5051088;28;20870;-59
2022/10/29 01:21:29;;;;;;;14.70;13.60;;;16.60;42.90;;;;;;5049029;28;20421;-60
2022/10/29 01:24:10;;;;;;;14.60;12.80;;;16.70;43.00;;;;;;5048172;28;20529;-58
2022/10/29 01:26:52;;;;;;;13.50;12.70;;;16.70;42.90;;;;;;5049933;28;20518;-50
2022/10/29 01:29:45;;;;;;;15.40;13.30;;;16.70;42.50;;;;;;5049502;28;20533;-58
2022/10/29 01:32:11;;;;;;;14.93;13.90;;;16.70;42.70;;;;;;5048189;28;20421;-58
2022/10/29 01:34:55;;;;;;;15.47;14.03;;;16.70;42.80;;;;;;5047794;28;20422;-54
2022/10/29 01:37:39;;;;;;;14.30;13.40;;;16.80;42.90;;;;;;5050230;28;20188;-52
2022/10/29 01:40:17;;;;;;;14.70;13.60;;;16.70;43.00;;;;;;5049475;28;20461;-52
2022/10/29 01:43:21;;;;;;;14.90;13.50;;;16.70;43.10;;;;;;5048957;28;20502;-54
2022/10/29 01:45:53;;;;;;;14.47;13.57;;;16.70;43.10;;;;;;5047552;28;20426;-58
2022/10/29 01:48:25;;;;;;;14.90;13.50;;;16.70;43.00;;;;;;5048887;28;20418;-59
2022/10/29 01:50:54;;;;;;;14.90;14.10;;;16.70;43.00;;;;;;5046763;28;20929;-59
2022/10/29 01:53:20;;;;;;;14.27;13.30;;;16.70;42.80;;;;;;5050228;28;20450;-59
2022/10/29 01:55:46;;;;;;;14.40;13.40;;;16.70;43.20;;;;;;5048389;28;20905;-58
2022/10/29 01:58:12;;;;;;;14.00;12.90;;;16.70;43.30;;;;;;5047779;28;20559;-59
2022/10/29 02:01:02;;;;;;;15.13;13.97;;;16.70;43.40;;;;;;5047828;28;20230;-59
2022/10/29 02:03:37;;;;;;;14.10;12.97;;;16.70;43.40;;;;;;5049154;28;20446;-58
2022/10/29 02:06:44;;;;;;;14.20;13.13;;;16.70;43.50;;;;;;5047758;28;20418;-59
2022/10/29 02:09:31;;;;;;;14.70;13.50;;;16.70;43.40;;;;;;5047735;28;20429;-55
2022/10/29 02:12:02;;;;;;;13.80;13.00;;;16.70;43.40;;;;;;5048347;28;20422;-54
2022/10/29 02:14:33;;;;;;;14.40;13.33;;;16.70;43.10;;;;;;5048272;28;20789;-55
2022/10/29 02:17:00;;;;;;;14.97;13.97;;;16.70;43.40;;;;;;5047046;28;20418;-53
2022/10/29 02:19:34;;;;;;;14.20;13.20;;;16.70;43.40;;;;;;5046720;28;20462;-52
2022/10/29 02:22:00;;;;;;;14.53;13.30;;;16.70;43.40;;;;;;5047727;28;20790;-53
2022/10/29 02:24:26;;;;;;;14.57;13.63;;;16.70;43.40;;;;;;5048230;28;20407;-54
2022/10/29 02:26:52;;;;;;;16.23;14.60;;;16.70;43.40;;;;;;5047509;28;20180;-54
2022/10/29 02:29:17;;;;;;;15.93;14.40;;;16.70;44.10;;;;;;5047365;28;20668;-54
2022/10/29 02:31:43;;;;;;;14.47;13.37;;;16.70;43.40;;;;;;5047377;28;20211;-53
2022/10/29 02:34:09;;;;;;;15.37;14.17;;;16.70;43.30;;;;;;5047918;28;20180;-54
2022/10/29 02:36:34;;;;;;;16.50;14.60;;;16.70;43.40;;;;;;5047091;28;20191;-52
2022/10/29 02:39:00;;;;;;;15.10;14.10;;;16.70;43.30;;;;;;5049490;28;20239;-53
2022/10/29 02:41:25;;;;;;;15.97;14.10;;;16.70;43.40;;;;;;5048406;28;20651;-53
2022/10/29 02:43:52;;;;;;;15.33;14.30;;;16.70;43.40;;;;;;5046604;28;20613;-53
2022/10/29 02:46:20;;;;;;;16.57;15.00;;;16.70;43.30;;;;;;5047918;28;20458;-51
2022/10/29 02:48:46;;;;;;;14.80;13.77;;;16.70;43.70;;;;;;5046561;28;20222;-59
2022/10/29 02:51:12;;;;;;;16.50;14.87;;;16.70;43.50;;;;;;5045930;28;20419;-59
2022/10/29 02:53:38;;;;;;;15.23;14.27;;;16.70;43.40;;;;;;5047730;28;20468;-59
2022/10/29 02:56:05;;;;;;;14.57;13.70;;;16.70;43.20;;;;;;5046453;28;20438;-59
2022/10/29 02:58:31;;;;;;;13.40;12.60;;;16.70;43.40;;;;;;5045474;28;20718;-59
2022/10/29 03:00:56;;;;;;;16.83;14.00;;;16.70;43.20;;;;;;5046141;28;20414;-59
2022/10/29 03:03:22;;;;;;;15.30;13.93;;;16.70;43.00;;;;;;5047370;28;20172;-59
2022/10/29 03:05:48;;;;;;;14.40;13.40;;;16.70;42.80;;;;;;5049125;28;20172;-59
2022/10/29 03:08:13;;;;;;;16.37;14.90;;;16.70;43.00;;;;;;5048067;28;20410;-59
2022/10/29 03:10:39;;;;;;;15.83;14.40;;;16.70;43.40;;;;;;5043690;28;20183;-59
2022/10/29 03:13:05;;;;;;;15.50;14.37;;;16.60;43.40;;;;;;5047139;28;20180;-59
2022/10/29 03:15:30;;;;;;;15.70;14.60;;;16.60;43.90;;;;;;5046245;28;20180;-59
2022/10/29 03:17:56;;;;;;;14.67;13.70;;;16.60;43.80;;;;;;5047321;28;20229;-59
2022/10/29 03:20:21;;;;;;;15.80;14.60;;;16.60;43.90;;;;;;5045573;28;20655;-60
2022/10/29 03:22:47;;;;;;;17.40;14.67;;;16.70;43.70;;;;;;5050452;28;20178;-59
2022/10/29 03:25:13;;;;;;;14.13;13.23;;;16.70;43.60;;;;;;5046732;28;20184;-59
2022/10/29 03:27:42;;;;;;;14.20;13.10;;;16.70;43.60;;;;;;5048939;28;20547;-59
2022/10/29 03:30:10;;;;;;;14.47;13.53;;;16.70;43.40;;;;;;5049062;28;20231;-58
2022/10/29 03:32:40;;;;;;;14.53;13.47;;;16.60;43.70;;;;;;5049325;28;20813;-58
2022/10/29 03:35:07;;;;;;;16.30;15.10;;;16.60;43.90;;;;;;5050242;28;20752;-59
2022/10/29 03:37:33;;;;;;;15.60;14.57;;;16.60;44.20;;;;;;5048904;28;20414;-59
2022/10/29 03:39:58;;;;;;;14.50;13.50;;;16.60;43.90;;;;;;5049647;28;20825;-59
2022/10/29 03:42:24;;;;;;;15.03;13.73;;;16.70;43.80;;;;;;5050304;28;20670;-59
2022/10/29 03:44:50;;;;;;;16.27;14.70;;;16.70;43.70;;;;;;5051008;28;20258;-53
2022/10/29 03:47:15;;;;;;;15.47;14.60;;;16.70;43.60;;;;;;5050969;28;20168;-53
2022/10/29 03:49:41;;;;;;;16.53;14.97;;;16.70;43.30;;;;;;5050470;28;20173;-54
2022/10/29 03:52:06;;;;;;;15.93;14.60;;;16.70;43.50;;;;;;5049470;28;20175;-53
2022/10/29 03:54:32;;;;;;;15.37;14.23;;;16.60;43.60;;;;;;5051049;28;20180;-55
2022/10/29 03:56:58;;;;;;;15.07;13.77;;;16.60;43.70;;;;;;5050639;28;20548;-55
2022/10/29 03:59:23;;;;;;;16.27;15.27;;;16.60;43.70;;;;;;5050833;28;20200;-53
2022/10/29 04:01:49;;;;;;;18.30;14.07;;;16.70;43.70;;;;;;5048628;28;20187;-54
2022/10/29 04:04:14;;;;;;;14.90;13.90;;;16.70;44.60;;;;;;5050175;28;20172;-53
2022/10/29 04:06:40;;;;;;;17.47;16.20;;;16.70;43.70;;;;;;5049345;28;20184;-53
2022/10/29 04:09:06;;;;;;;14.47;13.30;;;16.70;44.70;;;;;;5050253;28;20172;-54
2022/10/29 04:11:31;;;;;;;15.50;14.40;;;16.70;43.90;;;;;;5049712;28;20518;-53
2022/10/29 04:13:57;;;;;;;14.33;13.37;;;16.70;44.00;;;;;;5049472;28;20187;-52
2022/10/29 04:16:23;;;;;;;14.67;13.70;;;16.70;44.00;;;;;;5050123;28;20237;-51
2022/10/29 04:18:49;;;;;;;15.03;13.97;;;16.70;43.90;;;;;;5050383;28;20287;-54
2022/10/29 04:21:16;;;;;;;14.93;13.83;;;16.70;43.50;;;;;;5049665;28;20187;-53
2022/10/29 04:23:42;;;;;;;14.93;14.03;;;16.60;44.10;;;;;;5050386;28;20512;-55
2022/10/29 04:26:08;;;;;;;14.53;13.43;;;16.40;44.40;;;;;;5051270;28;20526;-52
2022/10/29 04:28:33;;;;;;;15.40;14.03;;;16.50;45.10;;;;;;5050461;28;20918;-54
2022/10/29 04:31:06;;;;;;;16.17;14.43;;;16.50;45.00;;;;;;5049941;28;20453;-55
2022/10/29 04:33:32;;;;;;;13.30;12.33;;;16.50;44.90;;;;;;5050434;28;20188;-52
2022/10/29 04:35:57;;;;;;;15.60;14.47;;;16.60;44.80;;;;;;5050457;28;20406;-55
2022/10/29 04:38:23;;;;;;;15.63;14.50;;;16.60;44.60;;;;;;5049715;28;20509;-54
2022/10/29 04:40:49;;;;;;;15.13;14.27;;;16.60;44.50;;;;;;5049244;28;20458;-54
2022/10/29 04:43:15;;;;;;;16.10;13.93;;;16.60;44.50;;;;;;5054313;28;20172;-59
2022/10/29 04:45:41;;;;;;;14.17;13.23;;;16.60;44.50;;;;;;5054345;28;20506;-59
2022/10/29 04:48:07;;;;;;;15.67;14.40;;;16.60;44.40;;;;;;5054213;28;20493;-59
2022/10/29 04:50:35;;;;;;;15.60;14.33;;;16.50;44.30;;;;;;5053714;28;20206;-59
2022/10/29 04:53:02;;;;;;;17.80;16.10;;;16.50;44.20;;;;;;5052493;28;20176;-59
2022/10/29 04:55:28;;;;;;;14.70;13.50;;;16.50;44.60;;;;;;5053408;28;20411;-59
2022/10/29 04:57:54;;;;;;;14.60;13.70;;;16.50;44.60;;;;;;5053118;28;20406;-59
2022/10/29 05:00:20;;;;;;;14.33;13.53;;;16.50;44.60;;;;;;5053567;28;20458;-59
2022/10/29 05:02:50;;;;;;;14.40;13.30;;;16.50;44.70;;;;;;5053218;28;20204;-59
2022/10/29 05:05:17;;;;;;;16.63;14.80;;;16.50;44.80;;;;;;5053111;28;20406;-59
2022/10/29 05:07:43;;;;;;;14.50;13.37;;;16.50;44.80;;;;;;5053928;28;20965;-59
2022/10/29 05:10:09;;;;;;;14.63;13.63;;;16.40;45.30;;;;;;5053352;28;20454;-55
2022/10/29 05:12:35;;;;;;;13.63;12.63;;;16.40;45.00;;;;;;5053500;28;20738;-55
2022/10/29 05:15:01;;;;;;;16.03;14.33;;;16.30;45.10;;;;;;5053093;28;20418;-54
2022/10/29 05:17:27;;;;;;;13.73;13.03;;;16.30;44.80;;;;;;5053531;28;20183;-53
2022/10/29 05:19:52;;;;;;;13.77;12.87;;;16.20;45.30;;;;;;5053632;28;20500;-50
2022/10/29 05:22:18;;;;;;;15.07;13.90;;;16.10;45.40;;;;;;5054116;28;20171;-53
2022/10/29 05:24:44;;;;;;;14.97;14.07;;;16.00;46.30;;;;;;5054143;28;20177;-54
2022/10/29 05:27:09;;;;;;;13.70;12.83;;;16.00;46.90;;;;;;5053438;28;20546;-53
2022/10/29 05:29:35;;;;;;;13.83;12.93;;;16.10;46.90;;;;;;5052284;28;20199;-53
2022/10/29 05:32:00;;;;;;;15.97;14.40;;;16.10;46.20;;;;;;5053266;28;20184;-54
2022/10/29 05:34:26;;;;;;;15.80;14.50;;;16.20;45.90;;;;;;5050637;28;20172;-53
2022/10/29 05:36:52;;;;;;;14.33;13.10;;;16.20;45.80;;;;;;5052213;28;20180;-53
2022/10/29 05:39:17;;;;;;;14.53;13.53;;;16.20;45.50;;;;;;5053804;28;20204;-52
2022/10/29 05:41:45;;;;;;;15.60;14.20;;;16.20;45.50;;;;;;5051358;28;20617;-55
2022/10/29 05:44:11;;;;;;;15.37;14.33;;;16.30;45.20;;;;;;5052518;28;20199;-56
2022/10/29 05:46:36;;;;;;;15.47;14.40;;;16.20;45.10;;;;;;5051369;28;20407;-54
2022/10/29 05:49:02;;;;;;;14.43;13.43;;;16.20;45.20;;;;;;5051084;28;20595;-53
2022/10/29 05:51:28;;;;;;;14.70;13.73;;;16.20;46.30;;;;;;5051616;28;20267;-49
2022/10/29 05:53:54;;;;;;;15.03;13.93;;;16.20;45.40;;;;;;5051065;28;20498;-53
2022/10/29 05:56:19;;;;;;;16.23;14.93;;;16.20;45.30;;;;;;5053390;28;20198;-52
2022/10/29 05:58:49;;;;;;;13.10;12.23;;;16.20;44.90;;;;;;5052598;28;20176;-53
2022/10/29 06:01:15;;;;;;;14.67;13.67;;;15.90;46.40;;;;;;5038682;28;20172;-52
2022/10/29 06:03:41;;;;;;;15.73;14.53;;;15.80;46.70;;;;;;5049248;28;20479;-51
2022/10/29 06:06:06;;;;;;;15.90;14.77;;;15.70;46.60;;;;;;5051730;28;20414;-50
2022/10/29 06:08:32;;;;;;;15.70;14.70;;;15.60;47.00;;;;;;5049013;28;20800;-51
2022/10/29 06:11:02;;;;;;;15.20;14.50;;;15.50;47.60;;;;;;5048797;28;20199;-52
2022/10/29 06:13:28;;;;;;;16.60;15.10;;;15.50;47.60;;;;;;5048088;28;20550;-59
2022/10/29 06:15:57;;;;;;;16.63;14.97;;;15.50;47.70;;;;;;5065044;28;20421;-59
2022/10/29 06:18:24;;;;;;;16.40;15.10;;;15.40;47.90;;;;;;5068132;28;20467;-58
2022/10/29 06:20:49;;;;;;;16.10;14.80;;;15.40;48.30;;;;;;5068383;28;20551;-58
2022/10/29 06:23:15;;;;;;;16.07;14.87;;;15.40;48.20;;;;;;5050604;28;20502;-59
2022/10/29 06:25:40;;;;;;;16.57;15.30;;;15.50;48.40;;;;;;5050183;28;20176;-58
2022/10/29 06:28:13;;;;;;;15.97;14.63;;;15.50;48.00;;;;;;5050362;28;20207;-59
2022/10/29 06:30:40;;;;;;;16.53;15.30;;;15.60;47.60;;;;;;5051363;28;20211;-58
2022/10/29 06:33:06;;;;;;;16.80;15.20;;;15.70;47.70;;;;;;5050408;28;20471;-58
2022/10/29 06:35:32;;;;;;;15.27;14.30;;;15.80;47.30;;;;;;5049995;28;20426;-58
2022/10/29 06:37:58;;;;;;;15.80;14.57;;;15.90;46.80;;;;;;5049884;28;20183;-58
2022/10/29 06:40:24;;;;;;;16.17;14.70;;;15.80;46.80;;;;;;5049503;28;20458;-60
2022/10/29 06:42:56;;;;;;;15.67;14.27;;;15.80;46.80;;;;;;5050251;28;20183;-58
2022/10/29 06:45:23;;;;;;;15.53;14.60;;;15.80;47.00;;;;;;5047047;28;20414;-59
2022/10/29 06:47:49;;;;;;;16.23;15.03;;;15.90;47.00;;;;;;5050039;28;20419;-59
2022/10/29 06:50:14;;;;;;;14.40;13.40;;;15.90;46.80;;;;;;5049656;28;20422;-59
2022/10/29 06:52:40;;;;;;;15.03;14.07;;;15.90;46.80;;;;;;5050035;28;20176;-52
2022/10/29 06:55:06;;;;;;;14.97;13.87;;;16.00;46.90;;;;;;5047470;28;20233;-52
2022/10/29 06:57:32;;;;;;;15.27;14.33;;;16.00;46.70;;;;;;5052547;28;20708;-54
2022/10/29 06:59:57;;;;;;;15.80;14.70;;;16.00;46.40;;;;;;5049634;28;20545;-52
2022/10/29 07:02:23;;;;;;;14.93;13.70;;;16.00;46.50;;;;;;5048907;28;20183;-53
2022/10/29 07:04:49;;;;;;;14.63;13.10;;;16.10;46.30;;;;;;5048245;28;20176;-51
2022/10/29 07:07:15;;;;;;;14.17;13.20;;;16.10;46.50;;;;;;5049579;28;20473;-56
2022/10/29 07:09:41;;;;;;;16.17;14.93;;;16.10;46.50;;;;;;5048291;28;20418;-56
2022/10/29 07:12:08;;;;;;;15.80;14.80;;;16.10;46.40;;;;;;5047407;28;20180;-56
2022/10/29 07:14:34;;;;;;;14.63;13.67;;;16.10;46.40;;;;;;5044525;28;20521;-56
2022/10/29 07:16:59;;;;;;;15.43;14.20;;;16.10;46.30;;;;;;5042771;28;20506;-52
2022/10/29 07:19:25;;;;;;;13.97;13.00;;;16.20;46.40;;;;;;5042924;28;20458;-52
2022/10/29 07:21:51;;;;;;;14.57;13.33;;;16.20;46.20;;;;;;5043322;28;20183;-55
2022/10/29 07:24:16;;;;;;;15.33;14.20;;;16.20;46.00;;;;;;5043272;28;20366;-55
2022/10/29 07:26:42;;;;;;;13.73;12.50;;;16.20;45.90;;;;;;5044659;28;20187;-54
2022/10/29 07:29:08;;;;;;;15.00;14.00;;;16.30;46.00;;;;;;5041887;28;20266;-54
2022/10/29 07:31:34;;;;;;;14.70;13.70;;;16.30;45.80;;;;;;5044849;28;20468;-55
2022/10/29 07:34:00;;;;;;;14.53;13.70;;;16.30;45.60;;;;;;5046788;28;20855;-59
2022/10/29 07:36:25;;;;;;;16.03;12.87;;;16.40;45.30;;;;;;5046019;28;20271;-55
2022/10/29 07:38:51;;;;;;;14.63;13.53;;;16.30;45.00;;;;;;5044934;28;20256;-53
2022/10/29 07:41:16;;;;;;;14.10;13.10;;;16.30;44.80;;;;;;5043292;28;20176;-59
2022/10/29 07:43:42;;;;;;;15.80;14.60;;;16.40;44.60;;;;;;5045330;28;20184;-55
2022/10/29 07:46:08;;;;;;;16.97;15.33;;;16.40;44.40;;;;;;5047322;28;20554;-52
2022/10/29 07:48:33;;;;;;;16.03;14.50;;;16.40;44.20;;;;;;5027273;28;20229;-54
2022/10/29 07:51:00;;;;;;;19.20;17.37;;;16.40;44.20;;;;;;5046867;28;20180;-54
2022/10/29 07:53:26;;;;;;;15.83;14.80;;;16.40;44.00;;;;;;5046145;28;20324;-54
2022/10/29 07:55:56;;;;;;;16.10;14.50;;;16.40;44.20;;;;;;5047501;28;20441;-54
2022/10/29 07:58:22;;;;;;;15.83;14.33;;;16.40;44.40;;;;;;5045522;28;20176;-55
2022/10/29 08:00:48;;;;;;;15.13;13.90;;;16.40;43.70;;;;;;5043920;28;20454;-55
2022/10/29 08:03:14;;;;;;;16.43;14.97;;;16.40;44.10;;;;;;5044246;28;20784;-54
2022/10/29 08:05:40;;;;;;;15.90;14.70;;;16.40;44.80;;;;;;5043579;28;20414;-56
2022/10/29 08:08:06;;;;;;;17.20;15.07;;;16.40;44.60;;;;;;5043481;28;20179;-53
2022/10/29 08:10:34;;;;;;;15.37;14.27;;;16.50;44.20;;;;;;5033510;28;20451;-54
2022/10/29 08:13:02;;;;;;;15.70;14.53;;;16.50;43.80;;;;;;5024638;28;20411;-56
2022/10/29 08:15:30;;;;;;;17.33;15.47;;;16.50;44.00;;;;;;5025843;28;20416;-53
2022/10/29 08:17:56;;;;;;;16.30;15.30;;;16.60;44.00;;;;;;5027560;28;20506;-60
2022/10/29 08:20:24;;;;;;;16.23;15.03;;;16.60;44.10;;;;;;5043855;28;20458;-54
2022/10/29 08:22:50;;;;;;;15.90;14.67;;;16.70;44.00;;;;;;5046145;28;20772;-56
2022/10/29 08:25:15;;;;;;;15.37;14.07;;;16.70;43.60;;;;;;5045247;28;20419;-55
2022/10/29 08:27:42;;;;;;;16.07;14.67;;;16.80;43.30;;;;;;5045310;28;20184;-54
2022/10/29 08:30:10;;;;;;;15.97;14.30;;;16.80;43.00;;;;;;5045788;28;20230;-54
2022/10/29 08:32:36;;;;;;;15.00;13.90;;;16.90;43.00;;;;;;5048411;28;20421;-52
2022/10/29 08:35:02;;;;;;;16.17;14.50;;;16.90;42.40;;;;;;5046800;28;20415;-52
2022/10/29 08:37:28;;;;;;;16.07;14.73;;;17.00;42.00;;;;;;5046267;28;20656;-54
2022/10/29 08:39:53;;;;;;;15.17;14.07;;;17.00;42.10;;;;;;5046869;28;20462;-54
2022/10/29 08:42:51;;;;;;;17.77;15.70;;;17.10;41.80;;;;;;5048261;28;20183;-52
2022/10/29 08:45:28;;;;;;;15.20;14.27;;;17.10;41.60;;;;;;5048673;28;20176;-54
2022/10/29 08:48:07;;;;;;;16.40;14.67;;;17.20;41.90;;;;;;5044400;28;20416;-52
2022/10/29 08:50:39;;;;;;;16.93;15.40;;;17.20;42.00;;;;;;5045060;28;20419;-53
2022/10/29 08:53:17;;;;;;;16.23;15.10;;;17.30;41.40;;;;;;5047042;28;20728;-55
2022/10/29 08:55:45;;;;;;;16.73;15.30;;;17.30;41.30;;;;;;5045165;28;20437;-54
2022/10/29 08:58:32;;;;;;;15.90;14.70;;;17.40;41.70;;;;;;5045263;28;20426;-52
2022/10/29 09:00:58;;;;;;;15.93;14.70;;;17.50;41.60;;;;;;5033174;28;20472;-52
2022/10/29 09:03:28;;;;;;;15.80;14.60;;;17.50;41.70;;;;;;5045660;28;20829;-54
2022/10/29 09:06:09;;;;;;;16.63;15.17;;;17.70;41.50;;;;;;5047777;28;20607;-54
2022/10/29 09:08:44;;;;;;;15.93;14.70;;;17.70;41.30;;;;;;5048249;28;20803;-53
2022/10/29 09:11:31;;;;;;;15.13;14.30;;;17.80;40.70;;;;;;5047789;28;20426;-55
2022/10/29 09:14:27;;;;;;;17.80;15.97;;;17.90;40.40;;;;;;5046644;28;20532;-55
2022/10/29 09:16:55;;;;;;;14.73;13.63;;;18.00;39.50;;;;;;5046638;28;20421;-52
2022/10/29 09:19:39;;;;;;;15.80;14.83;;;18.10;38.70;;;;;;5047722;28;20461;-53
2022/10/29 09:22:36;;;;;;;16.90;15.70;;;18.10;38.60;;;;;;5047166;28;20421;-55
2022/10/29 09:25:28;;;;;;;16.63;15.50;;;18.10;38.60;;;;;;5046163;28;20753;-52
2022/10/29 09:28:42;;;;;;;16.97;15.20;;;18.10;38.60;;;;;;5045941;28;20844;-52
2022/10/29 09:31:08;;;;;;;14.23;13.13;;;18.20;38.70;;;;;;5046827;28;20518;-59
2022/10/29 09:33:34;;;;;;;14.90;13.97;;;18.20;38.70;;;;;;5051002;28;20427;-59
2022/10/29 09:36:00;;;;;;;15.83;14.37;;;18.20;38.70;;;;;;5052124;28;20172;-59
2022/10/29 09:38:31;;;;;;;15.20;14.10;;;18.20;38.70;;;;;;5051938;28;20203;-59
2022/10/29 09:41:00;;;;;;;14.87;13.80;;;18.20;38.70;;;;;;5050703;28;20454;-59
2022/10/29 09:43:44;;;;;;;16.43;15.13;;;18.20;38.70;;;;;;5045412;28;20426;-59
2022/10/29 09:46:31;;;;;;;13.73;12.80;;;18.30;38.80;;;;;;5050191;28;20454;-59
2022/10/29 09:49:12;;;;;;;16.83;14.53;;;18.30;38.40;;;;;;5030888;28;20457;-59
2022/10/29 09:51:44;;;;;;;14.60;13.30;;;18.40;38.10;;;;;;5030509;28;20426;-58
2022/10/29 09:54:11;;;;;;;14.33;12.97;;;18.40;37.80;;;;;;5030767;28;20777;-49
2022/10/29 09:56:42;;;;;;;15.40;14.10;;;18.40;38.10;;;;;;5031858;28;20415;-54
2022/10/29 09:59:33;;;;;;;15.53;14.50;;;18.50;38.50;;;;;;5014794;28;20513;-53
2022/10/29 10:02:00;;;;;;;13.67;12.77;;;18.50;37.40;;;;;;5021490;28;20449;-52
2022/10/29 10:04:39;;;;;;;15.87;14.30;;;18.60;37.40;;;;;;5038427;28;20893;-54
2022/10/29 10:07:16;;;;;;;15.53;14.53;;;18.70;37.10;;;;;;5035576;28;20449;-55
2022/10/29 10:09:53;;;;;;;13.60;12.80;;;18.70;36.20;;;;;;5038175;28;20499;-54
2022/10/29 10:12:22;;;;;;;14.73;13.50;;;18.80;36.10;;;;;;5037672;28;20453;-54
2022/10/29 10:14:48;;;;;;;14.10;13.27;;;18.80;36.30;;;;;;5052393;28;20484;-52
2022/10/29 10:17:14;;;;;;;12.57;11.70;;;18.90;36.30;;;;;;5037488;28;20446;-54
2022/10/29 10:19:44;;;;;;;15.87;14.30;;;18.90;36.00;;;;;;5036740;28;20227;-54
2022/10/29 10:22:19;;;;;;;14.10;13.20;;;19.00;35.30;;;;;;5037104;28;20220;-54
2022/10/29 10:24:45;;;;;;;13.53;12.67;;;19.00;35.40;;;;;;5040380;28;20481;-55
2022/10/29 10:27:16;;;;;;;13.13;12.43;;;19.00;35.40;;;;;;5039981;28;20985;-55
2022/10/29 10:29:42;;;;;;;14.53;13.10;;;19.10;35.30;;;;;;5038412;28;20306;-55
2022/10/29 10:32:15;;;;;;;15.30;13.93;;;19.10;35.20;;;;;;5036767;28;20561;-53
2022/10/29 10:34:41;;;;;;;14.33;13.13;;;19.20;34.90;;;;;;5038713;28;20250;-50
2022/10/29 10:37:10;;;;;;;14.23;13.13;;;19.30;34.80;;;;;;5039374;28;20486;-54
2022/10/29 10:39:43;;;;;;;12.90;11.90;;;19.30;35.00;;;;;;5033265;28;20474;-50
2022/10/29 10:42:21;;;;;;;13.90;12.90;;;19.30;34.60;;;;;;5034578;28;20458;-58
2022/10/29 10:44:51;;;;;;;13.70;12.80;;;19.40;34.30;;;;;;5035917;28;20811;-58
2022/10/29 10:47:20;;;;;;;13.90;12.80;;;19.50;33.60;;;;;;5036515;28;21265;-59
2022/10/29 10:49:46;;;;;;;13.80;12.43;;;19.50;33.60;;;;;;5033810;28;20547;-53
2022/10/29 10:52:20;;;;;;;13.33;12.53;;;19.50;33.40;;;;;;5035110;28;21053;-62
2022/10/29 10:54:57;;;;;;;13.80;12.70;;;19.60;33.20;;;;;;5034350;28;20219;-59
2022/10/29 10:57:28;;;;;;;14.37;13.10;;;19.70;34.20;;;;;;5037741;28;20446;-59
2022/10/29 11:00:05;;;;;;;14.47;13.23;;;19.80;33.60;;;;;;5033193;28;20454;-58
2022/10/29 11:02:30;;;;;;;12.90;11.93;;;19.80;32.90;;;;;;5031755;28;20450;-59
2022/10/29 11:05:08;;;;;;;13.70;12.90;;;19.80;33.10;;;;;;5029735;28;20457;-58
2022/10/29 11:07:37;;;;;;;15.17;12.13;;;19.80;33.40;;;;;;5037172;28;20605;-59
2022/10/29 11:10:05;;;;;;;15.30;12.60;;;19.80;32.90;;;;;;5033986;28;20459;-56
2022/10/29 11:12:38;;;;;;;14.73;13.47;;;19.90;32.70;;;;;;5030917;28;20454;-59
2022/10/29 11:15:10;;;;;;;14.33;13.23;;;19.90;32.00;;;;;;5031839;28;20458;-59
2022/10/29 11:17:44;;;;;;;14.10;12.90;;;20.00;32.20;;;;;;5032917;28;20540;-60
2022/10/29 11:20:20;;;;;;;13.40;12.60;;;20.10;32.80;;;;;;5030679;28;20899;-59
2022/10/29 11:22:48;;;;;;;14.57;13.30;;;20.10;33.20;;;;;;5029734;28;20567;-60
2022/10/29 11:25:30;;;;;;;13.43;12.53;;;20.10;33.30;;;;;;5034573;28;20446;-59
2022/10/29 11:28:07;;;;;;;15.53;14.03;;;20.10;33.20;;;;;;5030166;28;20446;-60
2022/10/29 11:30:40;;;;;;;14.93;13.70;;;20.20;33.10;;;;;;5029563;28;20466;-60
2022/10/29 11:33:21;;;;;;;14.70;13.50;;;20.20;33.40;;;;;;5033471;28;20801;-60
2022/10/29 11:36:19;;;;;;;14.67;13.23;;;20.20;33.20;;;;;;5031219;28;20450;-54
2022/10/29 11:39:06;;;;;;;13.80;12.57;;;20.30;33.10;;;;;;5029161;28;20493;-56
2022/10/29 11:41:46;;;;;;;12.70;11.70;;;20.30;33.10;;;;;;5029295;28;20451;-55
2022/10/29 11:44:14;;;;;;;13.77;12.53;;;20.30;33.20;;;;;;5032749;28;20446;-55
2022/10/29 11:47:17;;;;;;;14.17;13.13;;;20.40;32.80;;;;;;5030179;28;20891;-55
2022/10/29 11:49:58;;;;;;;14.03;13.10;;;20.50;32.90;;;;;;5030943;28;20806;-56
2022/10/29 11:53:01;;;;;;;13.23;12.33;;;20.60;32.00;;;;;;5032009;28;20500;-56
2022/10/29 11:55:53;;;;;;;14.37;13.03;;;20.60;31.50;;;;;;5021682;28;20449;-56
2022/10/29 11:58:33;;;;;;;14.40;13.30;;;20.70;31.50;;;;;;5023312;28;20496;-53
2022/10/29 12:01:19;;;;;;;14.77;13.27;;;20.70;31.60;;;;;;5031540;28;20458;-56
2022/10/29 12:04:00;;;;;;;12.80;12.07;;;20.80;30.90;;;;;;5030769;28;20846;-61
2022/10/29 12:06:44;;;;;;;14.93;13.73;;;20.80;30.60;;;;;;5030551;28;20450;-61
2022/10/29 12:09:31;;;;;;;15.73;12.80;;;20.90;30.60;;;;;;5026337;28;20880;-62
2022/10/29 12:12:23;;;;;;;15.30;14.00;;;20.90;30.60;;;;;;5027502;28;20457;-60
2022/10/29 12:15:01;;;;;;;14.00;12.80;;;21.00;30.80;;;;;;5029147;28;20917;-60
2022/10/29 12:17:38;;;;;;;14.07;13.13;;;21.00;30.70;;;;;;5015127;28;21002;-61
2022/10/29 12:20:12;;;;;;;15.00;13.10;;;21.00;30.70;;;;;;5009635;28;20471;-61
2022/10/29 12:23:24;;;;;;;16.50;13.93;;;21.10;30.80;;;;;;5011407;28;20967;-54
2022/10/29 12:26:17;;;;;;;14.63;13.70;;;21.10;30.80;;;;;;5008580;28;20451;-56
2022/10/29 12:29:08;;;;;;;14.37;13.40;;;21.10;31.30;;;;;;5007783;28;20451;-57
2022/10/29 12:31:44;;;;;;;17.27;15.43;;;21.10;31.50;;;;;;5009764;28;20469;-57
2022/10/29 12:34:40;;;;;;;23.20;14.20;;;21.10;31.20;;;;;;5009636;28;20775;-56
2022/10/29 12:37:20;;;;;;;14.93;13.83;;;21.20;31.00;;;;;;4995558;28;20905;-57
2022/10/29 12:39:54;;;;;;;13.73;12.80;;;21.20;31.70;;;;;;5007847;28;20652;-57
2022/10/29 12:42:29;;;;;;;14.03;12.90;;;21.20;31.90;;;;;;5011114;28;20471;-57
2022/10/29 12:45:04;;;;;;;13.00;12.10;;;21.20;32.00;;;;;;5009661;28;20955;-54
2022/10/29 12:47:43;;;;;;;13.73;12.47;;;21.20;32.30;;;;;;5012381;28;20451;-55